sensor_id;sensor_type;location;lat;lon;timestamp;P1;durP1;ratioP1;P2;durP2;ratioP2
42260;SDS011;27926;48.062;7.474;2023-04-26T00:01:16;13.35;;;8.23;;
42260;SDS011;27926;48.062;7.474;2023-04-26T00:03:41;12.68;;;8.00;;
42260;SDS011;27926;48.062;7.474;2023-04-26T00:06:06;16.73;;;8.90;;
42260;SDS011;27926;48.062;7.474;2023-04-26T00:08:33;28.80;;;10.75;;
42260;SDS011;27926;48.062;7.474;2023-04-26T00:10:57;14.85;;;8.15;;
42260;SDS011;27926;48.062;7.474;2023-04-26T00:13:22;18.25;;;7.97;;
42260;SDS011;27926;48.062;7.474;2023-04-26T00:15:46;11.77;;;6.93;;
42260;SDS011;27926;48.062;7.474;2023-04-26T00:18:11;9.93;;;6.22;;
42260;SDS011;27926;48.062;7.474;2023-04-26T00:20:35;10.68;;;6.55;;
42260;SDS011;27926;48.062;7.474;2023-04-26T00:23:00;13.88;;;7.90;;
42260;SDS011;27926;48.062;7.474;2023-04-26T00:25:25;11.18;;;7.05;;
42260;SDS011;27926;48.062;7.474;2023-04-26T00:27:50;11.85;;;7.05;;
42260;SDS011;27926;48.062;7.474;2023-04-26T00:30:15;14.05;;;8.57;;
42260;SDS011;27926;48.062;7.474;2023-04-26T00:32:40;24.95;;;13.35;;
42260;SDS011;27926;48.062;7.474;2023-04-26T00:35:04;16.45;;;8.55;;
42260;SDS011;27926;48.062;7.474;2023-04-26T00:37:29;13.57;;;8.45;;
42260;SDS011;27926;48.062;7.474;2023-04-26T00:39:54;14.68;;;8.15;;
42260;SDS011;27926;48.062;7.474;2023-04-26T00:42:20;24.00;;;19.67;;
42260;SDS011;27926;48.062;7.474;2023-04-26T00:44:44;15.20;;;12.45;;
42260;SDS011;27926;48.062;7.474;2023-04-26T00:47:09;13.20;;;7.70;;
42260;SDS011;27926;48.062;7.474;2023-04-26T00:49:34;12.65;;;7.93;;
42260;SDS011;27926;48.062;7.474;2023-04-26T00:51:58;20.35;;;8.52;;
42260;SDS011;27926;48.062;7.474;2023-04-26T00:54:23;12.27;;;8.20;;
42260;SDS011;27926;48.062;7.474;2023-04-26T00:56:49;12.47;;;7.43;;
42260;SDS011;27926;48.062;7.474;2023-04-26T00:59:16;14.18;;;7.63;;
42260;SDS011;27926;48.062;7.474;2023-04-26T01:01:40;11.20;;;7.75;;
42260;SDS011;27926;48.062;7.474;2023-04-26T01:04:05;12.05;;;7.78;;
42260;SDS011;27926;48.062;7.474;2023-04-26T01:06:34;12.23;;;7.90;;
42260;SDS011;27926;48.062;7.474;2023-04-26T01:09:02;12.20;;;7.88;;
42260;SDS011;27926;48.062;7.474;2023-04-26T01:11:32;14.75;;;9.00;;
42260;SDS011;27926;48.062;7.474;2023-04-26T01:13:58;14.07;;;8.32;;
42260;SDS011;27926;48.062;7.474;2023-04-26T01:16:24;12.32;;;7.65;;
42260;SDS011;27926;48.062;7.474;2023-04-26T01:18:52;11.95;;;8.18;;
42260;SDS011;27926;48.062;7.474;2023-04-26T01:21:20;16.05;;;7.75;;
42260;SDS011;27926;48.062;7.474;2023-04-26T01:23:45;11.63;;;7.85;;
42260;SDS011;27926;48.062;7.474;2023-04-26T01:26:10;12.00;;;7.18;;
42260;SDS011;27926;48.062;7.474;2023-04-26T01:28:34;11.85;;;8.20;;
42260;SDS011;27926;48.062;7.474;2023-04-26T01:30:59;19.00;;;9.77;;
42260;SDS011;27926;48.062;7.474;2023-04-26T01:33:24;23.05;;;10.73;;
42260;SDS011;27926;48.062;7.474;2023-04-26T01:35:48;24.08;;;10.30;;
42260;SDS011;27926;48.062;7.474;2023-04-26T01:38:13;19.17;;;10.40;;
42260;SDS011;27926;48.062;7.474;2023-04-26T01:40:37;12.55;;;8.23;;
42260;SDS011;27926;48.062;7.474;2023-04-26T01:43:02;14.13;;;7.22;;
42260;SDS011;27926;48.062;7.474;2023-04-26T01:45:27;16.87;;;7.60;;
42260;SDS011;27926;48.062;7.474;2023-04-26T01:47:54;9.82;;;6.20;;
42260;SDS011;27926;48.062;7.474;2023-04-26T01:50:19;12.25;;;6.53;;
42260;SDS011;27926;48.062;7.474;2023-04-26T01:52:44;11.52;;;7.18;;
42260;SDS011;27926;48.062;7.474;2023-04-26T01:55:08;14.82;;;7.70;;
42260;SDS011;27926;48.062;7.474;2023-04-26T01:57:33;12.60;;;8.02;;
42260;SDS011;27926;48.062;7.474;2023-04-26T01:59:57;14.05;;;9.38;;
42260;SDS011;27926;48.062;7.474;2023-04-26T02:02:22;16.02;;;8.50;;
42260;SDS011;27926;48.062;7.474;2023-04-26T02:04:47;11.57;;;7.15;;
42260;SDS011;27926;48.062;7.474;2023-04-26T02:07:11;11.45;;;7.38;;
42260;SDS011;27926;48.062;7.474;2023-04-26T02:09:37;9.00;;;6.47;;
42260;SDS011;27926;48.062;7.474;2023-04-26T02:12:02;9.15;;;5.80;;
42260;SDS011;27926;48.062;7.474;2023-04-26T02:14:27;11.13;;;6.88;;
42260;SDS011;27926;48.062;7.474;2023-04-26T02:16:51;11.77;;;6.90;;
42260;SDS011;27926;48.062;7.474;2023-04-26T02:19:16;10.70;;;7.10;;
42260;SDS011;27926;48.062;7.474;2023-04-26T02:21:53;12.23;;;6.28;;
42260;SDS011;27926;48.062;7.474;2023-04-26T02:24:20;11.07;;;6.88;;
42260;SDS011;27926;48.062;7.474;2023-04-26T02:26:46;13.73;;;7.07;;
42260;SDS011;27926;48.062;7.474;2023-04-26T02:29:10;17.55;;;7.57;;
42260;SDS011;27926;48.062;7.474;2023-04-26T02:31:35;14.77;;;7.97;;
42260;SDS011;27926;48.062;7.474;2023-04-26T02:33:59;11.40;;;7.28;;
42260;SDS011;27926;48.062;7.474;2023-04-26T02:36:25;9.73;;;7.13;;
42260;SDS011;27926;48.062;7.474;2023-04-26T02:38:50;13.98;;;7.75;;
42260;SDS011;27926;48.062;7.474;2023-04-26T02:41:14;12.55;;;7.50;;
42260;SDS011;27926;48.062;7.474;2023-04-26T02:43:39;13.20;;;7.85;;
42260;SDS011;27926;48.062;7.474;2023-04-26T02:46:05;13.73;;;7.65;;
42260;SDS011;27926;48.062;7.474;2023-04-26T02:48:30;12.90;;;7.38;;
42260;SDS011;27926;48.062;7.474;2023-04-26T02:50:55;11.57;;;7.97;;
42260;SDS011;27926;48.062;7.474;2023-04-26T02:53:20;13.68;;;7.85;;
42260;SDS011;27926;48.062;7.474;2023-04-26T02:55:44;12.68;;;7.97;;
42260;SDS011;27926;48.062;7.474;2023-04-26T02:58:09;15.18;;;8.50;;
42260;SDS011;27926;48.062;7.474;2023-04-26T03:00:34;15.85;;;8.23;;
42260;SDS011;27926;48.062;7.474;2023-04-26T03:02:58;12.43;;;7.22;;
42260;SDS011;27926;48.062;7.474;2023-04-26T03:05:23;14.48;;;7.97;;
42260;SDS011;27926;48.062;7.474;2023-04-26T03:07:48;10.18;;;6.45;;
42260;SDS011;27926;48.062;7.474;2023-04-26T03:10:13;14.57;;;7.68;;
42260;SDS011;27926;48.062;7.474;2023-04-26T03:12:37;17.45;;;7.45;;
42260;SDS011;27926;48.062;7.474;2023-04-26T03:15:02;13.45;;;6.35;;
42260;SDS011;27926;48.062;7.474;2023-04-26T03:17:27;21.60;;;9.77;;
42260;SDS011;27926;48.062;7.474;2023-04-26T03:19:52;11.93;;;6.97;;
42260;SDS011;27926;48.062;7.474;2023-04-26T03:22:16;18.02;;;8.40;;
42260;SDS011;27926;48.062;7.474;2023-04-26T03:24:41;10.48;;;6.88;;
42260;SDS011;27926;48.062;7.474;2023-04-26T03:27:07;11.48;;;6.80;;
42260;SDS011;27926;48.062;7.474;2023-04-26T03:29:35;10.13;;;5.78;;
42260;SDS011;27926;48.062;7.474;2023-04-26T03:31:59;10.18;;;6.75;;
42260;SDS011;27926;48.062;7.474;2023-04-26T03:34:24;13.77;;;7.05;;
42260;SDS011;27926;48.062;7.474;2023-04-26T03:36:50;12.43;;;7.10;;
42260;SDS011;27926;48.062;7.474;2023-04-26T03:39:14;11.85;;;5.68;;
42260;SDS011;27926;48.062;7.474;2023-04-26T03:41:39;10.60;;;6.38;;
42260;SDS011;27926;48.062;7.474;2023-04-26T03:44:04;12.48;;;6.95;;
42260;SDS011;27926;48.062;7.474;2023-04-26T03:46:29;11.80;;;7.30;;
42260;SDS011;27926;48.062;7.474;2023-04-26T03:48:53;10.05;;;6.40;;
42260;SDS011;27926;48.062;7.474;2023-04-26T03:51:18;11.38;;;6.80;;
42260;SDS011;27926;48.062;7.474;2023-04-26T03:53:42;14.20;;;6.20;;
42260;SDS011;27926;48.062;7.474;2023-04-26T03:56:09;11.77;;;7.60;;
42260;SDS011;27926;48.062;7.474;2023-04-26T03:58:34;19.00;;;7.35;;
42260;SDS011;27926;48.062;7.474;2023-04-26T04:00:59;18.02;;;8.32;;
42260;SDS011;27926;48.062;7.474;2023-04-26T04:03:23;13.30;;;8.00;;
42260;SDS011;27926;48.062;7.474;2023-04-26T04:05:48;11.82;;;6.82;;
42260;SDS011;27926;48.062;7.474;2023-04-26T04:08:13;12.45;;;7.45;;
42260;SDS011;27926;48.062;7.474;2023-04-26T04:10:38;13.27;;;8.20;;
42260;SDS011;27926;48.062;7.474;2023-04-26T04:13:03;15.95;;;8.20;;
42260;SDS011;27926;48.062;7.474;2023-04-26T04:15:27;18.23;;;8.10;;
42260;SDS011;27926;48.062;7.474;2023-04-26T04:17:52;16.27;;;8.02;;
42260;SDS011;27926;48.062;7.474;2023-04-26T04:20:17;18.35;;;8.32;;
42260;SDS011;27926;48.062;7.474;2023-04-26T04:22:41;23.30;;;9.23;;
42260;SDS011;27926;48.062;7.474;2023-04-26T04:25:09;16.55;;;9.07;;
42260;SDS011;27926;48.062;7.474;2023-04-26T04:27:34;17.65;;;9.80;;
42260;SDS011;27926;48.062;7.474;2023-04-26T04:29:59;33.42;;;12.95;;
42260;SDS011;27926;48.062;7.474;2023-04-26T04:32:27;21.17;;;11.40;;
42260;SDS011;27926;48.062;7.474;2023-04-26T04:34:52;25.90;;;11.27;;
42260;SDS011;27926;48.062;7.474;2023-04-26T04:37:17;22.50;;;12.15;;
42260;SDS011;27926;48.062;7.474;2023-04-26T04:39:41;24.05;;;11.82;;
42260;SDS011;27926;48.062;7.474;2023-04-26T04:42:07;20.45;;;11.18;;
42260;SDS011;27926;48.062;7.474;2023-04-26T04:44:33;27.75;;;12.02;;
42260;SDS011;27926;48.062;7.474;2023-04-26T04:46:58;34.40;;;14.00;;
42260;SDS011;27926;48.062;7.474;2023-04-26T04:49:22;30.50;;;15.13;;
42260;SDS011;27926;48.062;7.474;2023-04-26T04:51:47;43.37;;;15.57;;
42260;SDS011;27926;48.062;7.474;2023-04-26T04:54:12;44.10;;;15.18;;
42260;SDS011;27926;48.062;7.474;2023-04-26T04:56:39;25.98;;;13.70;;
42260;SDS011;27926;48.062;7.474;2023-04-26T04:59:04;30.80;;;14.80;;
42260;SDS011;27926;48.062;7.474;2023-04-26T05:01:32;34.58;;;17.15;;
42260;SDS011;27926;48.062;7.474;2023-04-26T05:03:57;45.08;;;15.05;;
42260;SDS011;27926;48.062;7.474;2023-04-26T05:06:22;34.08;;;15.77;;
42260;SDS011;27926;48.062;7.474;2023-04-26T05:08:47;37.03;;;16.85;;
42260;SDS011;27926;48.062;7.474;2023-04-26T05:11:11;31.00;;;16.00;;
42260;SDS011;27926;48.062;7.474;2023-04-26T05:13:36;33.13;;;15.63;;
42260;SDS011;27926;48.062;7.474;2023-04-26T05:16:01;37.33;;;16.70;;
42260;SDS011;27926;48.062;7.474;2023-04-26T05:18:25;24.85;;;14.57;;
42260;SDS011;27926;48.062;7.474;2023-04-26T05:20:50;33.75;;;17.52;;
42260;SDS011;27926;48.062;7.474;2023-04-26T05:23:14;45.65;;;20.67;;
42260;SDS011;27926;48.062;7.474;2023-04-26T05:25:39;51.55;;;20.77;;
42260;SDS011;27926;48.062;7.474;2023-04-26T05:28:04;34.45;;;18.27;;
42260;SDS011;27926;48.062;7.474;2023-04-26T05:30:31;38.38;;;19.63;;
42260;SDS011;27926;48.062;7.474;2023-04-26T05:32:55;44.95;;;19.35;;
42260;SDS011;27926;48.062;7.474;2023-04-26T05:35:20;37.05;;;21.17;;
42260;SDS011;27926;48.062;7.474;2023-04-26T05:37:44;40.08;;;19.52;;
42260;SDS011;27926;48.062;7.474;2023-04-26T05:40:09;39.30;;;20.23;;
42260;SDS011;27926;48.062;7.474;2023-04-26T05:42:35;37.25;;;19.92;;
42260;SDS011;27926;48.062;7.474;2023-04-26T05:45:00;35.63;;;18.77;;
42260;SDS011;27926;48.062;7.474;2023-04-26T05:47:25;37.60;;;19.55;;
42260;SDS011;27926;48.062;7.474;2023-04-26T05:49:49;48.08;;;20.13;;
42260;SDS011;27926;48.062;7.474;2023-04-26T05:52:14;31.27;;;18.73;;
42260;SDS011;27926;48.062;7.474;2023-04-26T05:54:39;32.95;;;16.42;;
42260;SDS011;27926;48.062;7.474;2023-04-26T05:57:03;27.27;;;15.88;;
42260;SDS011;27926;48.062;7.474;2023-04-26T05:59:34;30.63;;;14.20;;
42260;SDS011;27926;48.062;7.474;2023-04-26T06:01:59;23.45;;;13.93;;
42260;SDS011;27926;48.062;7.474;2023-04-26T06:04:24;24.15;;;13.45;;
42260;SDS011;27926;48.062;7.474;2023-04-26T06:06:49;25.75;;;12.23;;
42260;SDS011;27926;48.062;7.474;2023-04-26T06:09:13;20.08;;;12.18;;
42260;SDS011;27926;48.062;7.474;2023-04-26T06:11:38;19.27;;;11.10;;
42260;SDS011;27926;48.062;7.474;2023-04-26T06:14:03;21.98;;;11.32;;
42260;SDS011;27926;48.062;7.474;2023-04-26T06:16:27;23.42;;;10.98;;
42260;SDS011;27926;48.062;7.474;2023-04-26T06:18:52;27.35;;;11.32;;
42260;SDS011;27926;48.062;7.474;2023-04-26T06:21:17;21.25;;;11.68;;
42260;SDS011;27926;48.062;7.474;2023-04-26T06:23:41;19.98;;;12.23;;
42260;SDS011;27926;48.062;7.474;2023-04-26T06:26:06;28.85;;;11.80;;
42260;SDS011;27926;48.062;7.474;2023-04-26T06:28:30;19.33;;;11.43;;
42260;SDS011;27926;48.062;7.474;2023-04-26T06:30:55;22.98;;;11.15;;
42260;SDS011;27926;48.062;7.474;2023-04-26T06:33:19;25.60;;;12.10;;
42260;SDS011;27926;48.062;7.474;2023-04-26T06:35:44;18.35;;;10.95;;
42260;SDS011;27926;48.062;7.474;2023-04-26T06:38:09;21.33;;;12.45;;
42260;SDS011;27926;48.062;7.474;2023-04-26T06:40:35;26.98;;;11.95;;
42260;SDS011;27926;48.062;7.474;2023-04-26T06:43:00;28.88;;;13.52;;
42260;SDS011;27926;48.062;7.474;2023-04-26T06:45:24;27.15;;;13.50;;
42260;SDS011;27926;48.062;7.474;2023-04-26T06:47:52;22.30;;;12.98;;
42260;SDS011;27926;48.062;7.474;2023-04-26T06:50:17;21.55;;;12.10;;
42260;SDS011;27926;48.062;7.474;2023-04-26T06:52:41;21.60;;;11.10;;
42260;SDS011;27926;48.062;7.474;2023-04-26T06:55:06;34.15;;;15.82;;
42260;SDS011;27926;48.062;7.474;2023-04-26T06:57:31;27.63;;;12.90;;
42260;SDS011;27926;48.062;7.474;2023-04-26T06:59:56;19.83;;;12.05;;
42260;SDS011;27926;48.062;7.474;2023-04-26T07:02:21;17.90;;;11.40;;
42260;SDS011;27926;48.062;7.474;2023-04-26T07:04:48;26.40;;;13.82;;
42260;SDS011;27926;48.062;7.474;2023-04-26T07:07:13;30.70;;;14.10;;
42260;SDS011;27926;48.062;7.474;2023-04-26T07:09:39;28.77;;;12.70;;
42260;SDS011;27926;48.062;7.474;2023-04-26T07:12:04;23.77;;;12.27;;
42260;SDS011;27926;48.062;7.474;2023-04-26T07:14:28;25.52;;;12.77;;
42260;SDS011;27926;48.062;7.474;2023-04-26T07:16:53;27.90;;;12.40;;
42260;SDS011;27926;48.062;7.474;2023-04-26T07:19:18;26.73;;;13.30;;
42260;SDS011;27926;48.062;7.474;2023-04-26T07:21:42;26.73;;;13.07;;
42260;SDS011;27926;48.062;7.474;2023-04-26T07:24:07;22.52;;;12.70;;
42260;SDS011;27926;48.062;7.474;2023-04-26T07:26:32;23.65;;;11.48;;
42260;SDS011;27926;48.062;7.474;2023-04-26T07:28:58;23.15;;;12.15;;
42260;SDS011;27926;48.062;7.474;2023-04-26T07:31:23;24.83;;;12.85;;
42260;SDS011;27926;48.062;7.474;2023-04-26T07:33:48;19.95;;;11.68;;
42260;SDS011;27926;48.062;7.474;2023-04-26T07:36:13;22.95;;;12.68;;
42260;SDS011;27926;48.062;7.474;2023-04-26T07:38:37;20.90;;;11.75;;
42260;SDS011;27926;48.062;7.474;2023-04-26T07:41:02;23.30;;;11.50;;
42260;SDS011;27926;48.062;7.474;2023-04-26T07:43:28;24.10;;;11.70;;
42260;SDS011;27926;48.062;7.474;2023-04-26T07:45:54;24.77;;;12.55;;
42260;SDS011;27926;48.062;7.474;2023-04-26T07:48:18;26.75;;;12.65;;
42260;SDS011;27926;48.062;7.474;2023-04-26T07:50:43;29.45;;;15.25;;
42260;SDS011;27926;48.062;7.474;2023-04-26T07:53:07;18.25;;;10.65;;
42260;SDS011;27926;48.062;7.474;2023-04-26T07:55:32;20.02;;;11.18;;
42260;SDS011;27926;48.062;7.474;2023-04-26T07:57:57;20.63;;;12.18;;
42260;SDS011;27926;48.062;7.474;2023-04-26T08:00:21;23.00;;;11.43;;
42260;SDS011;27926;48.062;7.474;2023-04-26T08:02:46;22.60;;;12.00;;
42260;SDS011;27926;48.062;7.474;2023-04-26T08:05:11;17.52;;;11.18;;
42260;SDS011;27926;48.062;7.474;2023-04-26T08:07:36;20.63;;;10.70;;
42260;SDS011;27926;48.062;7.474;2023-04-26T08:10:01;19.00;;;10.80;;
42260;SDS011;27926;48.062;7.474;2023-04-26T08:12:25;16.75;;;9.93;;
42260;SDS011;27926;48.062;7.474;2023-04-26T08:14:50;18.48;;;9.98;;
42260;SDS011;27926;48.062;7.474;2023-04-26T08:17:15;15.95;;;10.95;;
42260;SDS011;27926;48.062;7.474;2023-04-26T08:19:39;19.50;;;11.45;;
42260;SDS011;27926;48.062;7.474;2023-04-26T08:22:04;19.15;;;11.30;;
42260;SDS011;27926;48.062;7.474;2023-04-26T08:24:29;19.45;;;10.45;;
42260;SDS011;27926;48.062;7.474;2023-04-26T08:26:54;20.88;;;11.38;;
42260;SDS011;27926;48.062;7.474;2023-04-26T08:29:19;19.53;;;10.33;;
42260;SDS011;27926;48.062;7.474;2023-04-26T08:31:44;21.73;;;10.27;;
42260;SDS011;27926;48.062;7.474;2023-04-26T08:34:08;16.08;;;8.80;;
42260;SDS011;27926;48.062;7.474;2023-04-26T08:36:37;27.02;;;10.00;;
42260;SDS011;27926;48.062;7.474;2023-04-26T08:39:02;15.30;;;9.15;;
42260;SDS011;27926;48.062;7.474;2023-04-26T08:41:27;21.23;;;9.98;;
42260;SDS011;27926;48.062;7.474;2023-04-26T08:43:58;27.60;;;9.02;;
42260;SDS011;27926;48.062;7.474;2023-04-26T08:46:24;15.38;;;7.72;;
42260;SDS011;27926;48.062;7.474;2023-04-26T08:48:56;15.90;;;8.32;;
42260;SDS011;27926;48.062;7.474;2023-04-26T08:51:32;15.95;;;9.18;;
42260;SDS011;27926;48.062;7.474;2023-04-26T08:53:58;13.88;;;8.25;;
42260;SDS011;27926;48.062;7.474;2023-04-26T08:56:24;13.55;;;8.18;;
42260;SDS011;27926;48.062;7.474;2023-04-26T08:58:49;14.10;;;8.43;;
42260;SDS011;27926;48.062;7.474;2023-04-26T09:01:14;17.55;;;8.90;;
42260;SDS011;27926;48.062;7.474;2023-04-26T09:03:41;25.42;;;8.70;;
42260;SDS011;27926;48.062;7.474;2023-04-26T09:06:05;15.77;;;7.82;;
42260;SDS011;27926;48.062;7.474;2023-04-26T09:08:30;18.15;;;8.43;;
42260;SDS011;27926;48.062;7.474;2023-04-26T09:11:02;15.95;;;8.13;;
42260;SDS011;27926;48.062;7.474;2023-04-26T09:13:27;15.93;;;7.47;;
42260;SDS011;27926;48.062;7.474;2023-04-26T09:15:53;16.33;;;7.65;;
42260;SDS011;27926;48.062;7.474;2023-04-26T09:18:21;16.73;;;7.28;;
42260;SDS011;27926;48.062;7.474;2023-04-26T09:21:00;20.40;;;8.73;;
42260;SDS011;27926;48.062;7.474;2023-04-26T09:23:29;14.75;;;7.35;;
42260;SDS011;27926;48.062;7.474;2023-04-26T09:25:54;15.98;;;7.55;;
42260;SDS011;27926;48.062;7.474;2023-04-26T09:28:20;14.32;;;7.43;;
42260;SDS011;27926;48.062;7.474;2023-04-26T09:30:46;11.10;;;7.00;;
42260;SDS011;27926;48.062;7.474;2023-04-26T09:33:11;13.32;;;7.05;;
42260;SDS011;27926;48.062;7.474;2023-04-26T09:35:36;15.32;;;6.97;;
42260;SDS011;27926;48.062;7.474;2023-04-26T09:38:05;14.13;;;7.03;;
42260;SDS011;27926;48.062;7.474;2023-04-26T09:40:38;12.45;;;7.78;;
42260;SDS011;27926;48.062;7.474;2023-04-26T09:43:14;19.77;;;8.45;;
42260;SDS011;27926;48.062;7.474;2023-04-26T09:45:47;18.95;;;7.88;;
42260;SDS011;27926;48.062;7.474;2023-04-26T09:48:22;12.80;;;7.70;;
42260;SDS011;27926;48.062;7.474;2023-04-26T09:50:50;19.70;;;9.02;;
42260;SDS011;27926;48.062;7.474;2023-04-26T09:53:29;16.45;;;8.57;;
42260;SDS011;27926;48.062;7.474;2023-04-26T09:58:40;12.13;;;7.32;;
42260;SDS011;27926;48.062;7.474;2023-04-26T10:01:21;18.80;;;7.93;;
42260;SDS011;27926;48.062;7.474;2023-04-26T10:03:46;15.57;;;7.25;;
42260;SDS011;27926;48.062;7.474;2023-04-26T10:06:14;12.88;;;6.55;;
42260;SDS011;27926;48.062;7.474;2023-04-26T10:08:39;13.02;;;5.80;;
42260;SDS011;27926;48.062;7.474;2023-04-26T10:11:04;16.08;;;7.18;;
42260;SDS011;27926;48.062;7.474;2023-04-26T10:13:30;11.95;;;6.72;;
42260;SDS011;27926;48.062;7.474;2023-04-26T10:15:55;16.77;;;7.95;;
42260;SDS011;27926;48.062;7.474;2023-04-26T10:18:20;20.65;;;9.38;;
42260;SDS011;27926;48.062;7.474;2023-04-26T10:20:47;13.88;;;7.30;;
42260;SDS011;27926;48.062;7.474;2023-04-26T10:23:18;14.90;;;6.97;;
42260;SDS011;27926;48.062;7.474;2023-04-26T10:25:48;11.13;;;6.80;;
42260;SDS011;27926;48.062;7.474;2023-04-26T10:28:13;16.00;;;7.28;;
42260;SDS011;27926;48.062;7.474;2023-04-26T10:30:54;10.00;;;5.95;;
42260;SDS011;27926;48.062;7.474;2023-04-26T10:33:22;11.10;;;5.78;;
42260;SDS011;27926;48.062;7.474;2023-04-26T10:35:58;17.85;;;8.70;;
42260;SDS011;27926;48.062;7.474;2023-04-26T10:38:33;15.32;;;6.82;;
42260;SDS011;27926;48.062;7.474;2023-04-26T10:43:52;13.90;;;6.57;;
42260;SDS011;27926;48.062;7.474;2023-04-26T10:46:36;18.88;;;6.97;;
42260;SDS011;27926;48.062;7.474;2023-04-26T10:49:15;9.02;;;5.80;;
42260;SDS011;27926;48.062;7.474;2023-04-26T10:51:40;9.93;;;6.60;;
42260;SDS011;27926;48.062;7.474;2023-04-26T10:54:48;12.18;;;6.28;;
42260;SDS011;27926;48.062;7.474;2023-04-26T10:57:20;12.60;;;5.63;;
42260;SDS011;27926;48.062;7.474;2023-04-26T11:02:53;17.05;;;6.32;;
42260;SDS011;27926;48.062;7.474;2023-04-26T11:05:32;11.93;;;5.82;;
42260;SDS011;27926;48.062;7.474;2023-04-26T11:08:04;9.18;;;4.75;;
42260;SDS011;27926;48.062;7.474;2023-04-26T11:10:35;9.20;;;5.72;;
42260;SDS011;27926;48.062;7.474;2023-04-26T11:13:01;8.05;;;5.03;;
42260;SDS011;27926;48.062;7.474;2023-04-26T11:15:26;10.55;;;5.63;;
42260;SDS011;27926;48.062;7.474;2023-04-26T11:17:53;13.75;;;6.22;;
42260;SDS011;27926;48.062;7.474;2023-04-26T11:20:18;11.60;;;5.55;;
42260;SDS011;27926;48.062;7.474;2023-04-26T11:22:43;11.63;;;5.55;;
42260;SDS011;27926;48.062;7.474;2023-04-26T11:25:07;9.68;;;4.97;;
42260;SDS011;27926;48.062;7.474;2023-04-26T11:27:32;15.07;;;5.38;;
42260;SDS011;27926;48.062;7.474;2023-04-26T11:29:57;8.18;;;4.60;;
42260;SDS011;27926;48.062;7.474;2023-04-26T11:32:25;9.95;;;4.93;;
42260;SDS011;27926;48.062;7.474;2023-04-26T11:34:49;11.80;;;4.90;;
42260;SDS011;27926;48.062;7.474;2023-04-26T11:37:15;9.13;;;5.90;;
42260;SDS011;27926;48.062;7.474;2023-04-26T11:39:40;7.75;;;4.60;;
42260;SDS011;27926;48.062;7.474;2023-04-26T11:42:09;5.93;;;4.07;;
42260;SDS011;27926;48.062;7.474;2023-04-26T11:44:35;6.63;;;4.20;;
42260;SDS011;27926;48.062;7.474;2023-04-26T11:49:27;9.30;;;4.87;;
42260;SDS011;27926;48.062;7.474;2023-04-26T11:51:51;8.60;;;4.57;;
42260;SDS011;27926;48.062;7.474;2023-04-26T11:54:26;7.50;;;4.63;;
42260;SDS011;27926;48.062;7.474;2023-04-26T11:56:55;7.47;;;5.15;;
42260;SDS011;27926;48.062;7.474;2023-04-26T11:59:28;7.57;;;4.95;;
42260;SDS011;27926;48.062;7.474;2023-04-26T12:01:54;7.88;;;4.28;;
42260;SDS011;27926;48.062;7.474;2023-04-26T12:04:26;5.57;;;3.60;;
42260;SDS011;27926;48.062;7.474;2023-04-26T12:06:52;10.32;;;4.45;;
42260;SDS011;27926;48.062;7.474;2023-04-26T12:09:21;11.48;;;4.68;;
42260;SDS011;27926;48.062;7.474;2023-04-26T12:11:58;13.93;;;4.07;;
42260;SDS011;27926;48.062;7.474;2023-04-26T12:14:29;10.55;;;4.75;;
42260;SDS011;27926;48.062;7.474;2023-04-26T12:16:58;11.60;;;4.55;;
42260;SDS011;27926;48.062;7.474;2023-04-26T12:19:26;8.35;;;4.28;;
42260;SDS011;27926;48.062;7.474;2023-04-26T12:21:51;12.93;;;4.05;;
42260;SDS011;27926;48.062;7.474;2023-04-26T12:24:26;7.47;;;4.07;;
42260;SDS011;27926;48.062;7.474;2023-04-26T12:27:02;6.20;;;3.75;;
42260;SDS011;27926;48.062;7.474;2023-04-26T12:29:29;6.78;;;3.40;;
42260;SDS011;27926;48.062;7.474;2023-04-26T12:31:58;8.70;;;3.92;;
42260;SDS011;27926;48.062;7.474;2023-04-26T12:34:23;7.85;;;3.75;;
42260;SDS011;27926;48.062;7.474;2023-04-26T12:36:48;6.82;;;3.55;;
42260;SDS011;27926;48.062;7.474;2023-04-26T12:39:12;9.10;;;3.90;;
42260;SDS011;27926;48.062;7.474;2023-04-26T12:41:39;11.95;;;6.40;;
42260;SDS011;27926;48.062;7.474;2023-04-26T12:44:04;9.73;;;5.20;;
42260;SDS011;27926;48.062;7.474;2023-04-26T12:46:29;5.17;;;3.77;;
42260;SDS011;27926;48.062;7.474;2023-04-26T12:48:54;8.10;;;3.50;;
42260;SDS011;27926;48.062;7.474;2023-04-26T12:51:19;8.60;;;3.88;;
42260;SDS011;27926;48.062;7.474;2023-04-26T12:53:43;8.13;;;3.40;;
42260;SDS011;27926;48.062;7.474;2023-04-26T12:56:08;5.35;;;3.75;;
42260;SDS011;27926;48.062;7.474;2023-04-26T12:58:32;5.82;;;3.50;;
42260;SDS011;27926;48.062;7.474;2023-04-26T13:00:57;7.38;;;3.47;;
42260;SDS011;27926;48.062;7.474;2023-04-26T13:03:22;7.82;;;4.10;;
42260;SDS011;27926;48.062;7.474;2023-04-26T13:05:46;10.68;;;3.55;;
42260;SDS011;27926;48.062;7.474;2023-04-26T13:08:11;8.75;;;3.95;;
42260;SDS011;27926;48.062;7.474;2023-04-26T13:10:35;7.70;;;3.35;;
42260;SDS011;27926;48.062;7.474;2023-04-26T13:13:00;6.97;;;4.03;;
42260;SDS011;27926;48.062;7.474;2023-04-26T13:15:26;7.80;;;3.72;;
42260;SDS011;27926;48.062;7.474;2023-04-26T13:17:51;8.25;;;3.58;;
42260;SDS011;27926;48.062;7.474;2023-04-26T13:20:17;9.18;;;3.45;;
42260;SDS011;27926;48.062;7.474;2023-04-26T13:22:41;7.47;;;3.92;;
42260;SDS011;27926;48.062;7.474;2023-04-26T13:25:06;9.57;;;4.13;;
42260;SDS011;27926;48.062;7.474;2023-04-26T13:27:31;11.35;;;4.05;;
42260;SDS011;27926;48.062;7.474;2023-04-26T13:29:55;9.80;;;3.85;;
42260;SDS011;27926;48.062;7.474;2023-04-26T13:32:20;11.55;;;3.42;;
42260;SDS011;27926;48.062;7.474;2023-04-26T13:34:45;7.38;;;3.28;;
42260;SDS011;27926;48.062;7.474;2023-04-26T13:37:10;10.45;;;3.35;;
42260;SDS011;27926;48.062;7.474;2023-04-26T13:39:34;4.50;;;3.37;;
42260;SDS011;27926;48.062;7.474;2023-04-26T13:41:59;4.13;;;3.08;;
42260;SDS011;27926;48.062;7.474;2023-04-26T13:44:25;11.43;;;3.58;;
42260;SDS011;27926;48.062;7.474;2023-04-26T13:46:49;5.75;;;3.45;;
42260;SDS011;27926;48.062;7.474;2023-04-26T13:49:15;6.22;;;3.47;;
42260;SDS011;27926;48.062;7.474;2023-04-26T13:51:40;4.88;;;3.30;;
42260;SDS011;27926;48.062;7.474;2023-04-26T13:54:04;5.93;;;3.60;;
42260;SDS011;27926;48.062;7.474;2023-04-26T13:56:29;6.85;;;2.92;;
42260;SDS011;27926;48.062;7.474;2023-04-26T13:58:54;9.23;;;3.42;;
42260;SDS011;27926;48.062;7.474;2023-04-26T14:01:20;5.50;;;2.85;;
42260;SDS011;27926;48.062;7.474;2023-04-26T14:03:45;6.85;;;3.03;;
42260;SDS011;27926;48.062;7.474;2023-04-26T14:06:10;6.18;;;3.03;;
42260;SDS011;27926;48.062;7.474;2023-04-26T14:08:34;12.63;;;3.67;;
42260;SDS011;27926;48.062;7.474;2023-04-26T14:10:59;5.97;;;3.20;;
42260;SDS011;27926;48.062;7.474;2023-04-26T14:13:24;8.23;;;3.85;;
42260;SDS011;27926;48.062;7.474;2023-04-26T14:15:48;8.18;;;3.17;;
42260;SDS011;27926;48.062;7.474;2023-04-26T14:18:13;4.10;;;2.90;;
42260;SDS011;27926;48.062;7.474;2023-04-26T14:20:38;4.13;;;3.10;;
42260;SDS011;27926;48.062;7.474;2023-04-26T14:23:02;8.05;;;2.97;;
42260;SDS011;27926;48.062;7.474;2023-04-26T14:25:27;5.50;;;2.85;;
42260;SDS011;27926;48.062;7.474;2023-04-26T14:27:52;4.57;;;2.80;;
42260;SDS011;27926;48.062;7.474;2023-04-26T14:30:17;8.68;;;2.85;;
42260;SDS011;27926;48.062;7.474;2023-04-26T14:32:41;14.00;;;2.72;;
42260;SDS011;27926;48.062;7.474;2023-04-26T14:35:06;5.43;;;2.72;;
42260;SDS011;27926;48.062;7.474;2023-04-26T14:37:31;9.23;;;2.85;;